»·PEaware :: N9229P KAPA-KPUB

N9229P :: KAPA-KPUB

FLIGHT INFORMATION

Flight Status: Arrived
Operator: Privately registered:
United States
More flights under this callsign
Pilot: James W. (24810)
Aircraft: PIPER PA-24 COMMANCHE
(PA24)
More flights by this aircraft type
Origin: KAPA Centennial
United States
Destination: KPUB Pueblo Meml
United States
More flights between these airports :: More routes between these airports
Route: LUFSE V389 DRAKE BONUH
File this flight plan on PilotEdge
Remarks: +CW /
Altitude:
(Current/Filed)
11,000ft
Speed:
(Current/Filed)
150kts
Departed: 09-Nov-19 01:39 PM
Arrived: 09-Nov-19 02:23 PM
Distance/Time
Traveled:
79nm/0:44
Distance/Time
To Go:
Arrived

Flight Plot

Page will automatically refresh every two minutes.

Flight plan parsing failed; only flown route is shown


Map Options




Map Legend


Flown Route
Filed Route
Departure Airport
Arrival Airport
Navaid (VOR, NDB)
Fix

Horizontal Profiles

Position Reports

Time Latitude Longitude Heading Altitude Ground
Speed
09-Nov-19 13:28 39.583026 -104.848972 269 5886ft 0kts
09-Nov-19 13:29 39.583026 -104.848972 269 5886ft 0kts
09-Nov-19 13:30 39.583026 -104.848972 269 5886ft 0kts
09-Nov-19 13:31 39.583026 -104.848972 269 5886ft 0kts
09-Nov-19 13:32 39.583026 -104.848972 269 5886ft 0kts
09-Nov-19 13:33 39.583026 -104.848972 269 5886ft 0kts
09-Nov-19 13:34 39.583026 -104.848972 269 5886ft 0kts
09-Nov-19 13:35 39.583262 -104.849318 351 5886ft 7kts
09-Nov-19 13:36 39.584107 -104.850177 275 5886ft 0kts
09-Nov-19 13:37 39.584110 -104.850218 275 5886ft 1kts
09-Nov-19 13:38 39.575941 -104.851005 177 5942ft 94kts
09-Nov-19 13:39 39.571630 -104.870331 1 6638ft 148kts
09-Nov-19 13:40 39.604134 -104.886728 328 7462ft 120kts
09-Nov-19 13:41 39.627405 -104.904840 328 7851ft 122kts
09-Nov-19 13:42 39.653916 -104.893740 96 8312ft 139kts
09-Nov-19 13:43 39.624987 -104.855488 138 8971ft 157kts
09-Nov-19 13:44 39.591851 -104.817304 137 9673ft 160kts
09-Nov-19 13:45 39.558604 -104.778876 137 10374ft 160kts
09-Nov-19 13:46 39.525251 -104.740481 138 10839ft 162kts
09-Nov-19 13:47 39.490190 -104.700117 138 10854ft 172kts
09-Nov-19 13:48 39.453866 -104.658323 138 10853ft 178kts
09-Nov-19 13:49 39.416479 -104.615528 138 10853ft 179kts
09-Nov-19 13:50 39.379589 -104.573257 138 10853ft 176kts
09-Nov-19 13:51 39.342824 -104.531173 138 10853ft 176kts
09-Nov-19 13:52 39.306151 -104.489259 138 10853ft 176kts
09-Nov-19 13:53 39.268178 -104.449461 158 10866ft 175kts
09-Nov-19 13:54 39.232386 -104.406450 135 10856ft 176kts
09-Nov-19 13:55 39.189009 -104.385669 182 10855ft 176kts
09-Nov-19 13:56 39.140050 -104.387787 181 10853ft 175kts
09-Nov-19 13:57 39.091335 -104.390059 181 10853ft 175kts
09-Nov-19 13:58 39.042642 -104.392455 181 10853ft 175kts
09-Nov-19 13:59 38.993679 -104.394846 181 10853ft 175kts
09-Nov-19 14:00 38.944874 -104.397232 181 10853ft 175kts
09-Nov-19 14:01 38.896364 -104.399605 181 10853ft 175kts
09-Nov-19 14:02 38.847560 -104.401987 181 10853ft 175kts
09-Nov-19 14:03 38.798617 -104.404337 181 10853ft 175kts
09-Nov-19 14:04 38.749798 -104.406930 181 10853ft 175kts
09-Nov-19 14:05 38.700927 -104.409322 181 10853ft 175kts
09-Nov-19 14:06 38.651957 -104.411712 181 10853ft 175kts
09-Nov-19 14:07 38.603335 -104.410221 154 10853ft 175kts
09-Nov-19 14:08 38.562882 -104.373959 144 10429ft 176kts
09-Nov-19 14:09 38.523029 -104.337808 144 9927ft 174kts
09-Nov-19 14:10 38.484234 -104.302656 144 9424ft 169kts
09-Nov-19 14:11 38.445629 -104.267710 144 8884ft 170kts
09-Nov-19 14:12 38.406613 -104.232429 144 8194ft 172kts
09-Nov-19 14:13 38.361539 -104.219970 178 7538ft 167kts
09-Nov-19 14:14 38.328407 -104.218705 178 7174ft 164kts
09-Nov-19 14:15 38.293258 -104.244909 261 6668ft 161kts
09-Nov-19 14:16 38.291902 -104.300568 268 6452ft 147kts
09-Nov-19 14:17 38.290965 -104.343776 268 6445ft 91kts
09-Nov-19 14:18 38.290278 -104.375428 268 6228ft 92kts
09-Nov-19 14:19 38.289486 -104.409394 268 5727ft 96kts
09-Nov-19 14:20 38.288677 -104.444619 268 5111ft 100kts
09-Nov-19 14:21 38.287856 -104.477877 266 4650ft 71kts
09-Nov-19 14:22 38.286570 -104.485685 222 4649ft 11kts
09-Nov-19 14:23 38.285060 -104.491224 252 4647ft 15kts

Navigation Log

Ident Type
Flight plan parsing failed, navigation log unavailable